Time;durP1;ratioP1;P1;durP2;ratioP2;P2;SDS_P1;SDS_P2;PMS_P1;PMS_P2;Temp;Humidity;BMP_temperature;BMP_pressure;BME280_temperature;BME280_humidity;BME280_pressure;Samples;Min_cycle;Max_cycle;Signal;HPM_P1;HPM_P2
2023/09/23 00:00:02;;;;;;;8.20;1.40;;;;;;;8.57;100.00;100000.22;4957196;28;20034;-94
2023/09/23 00:02:28;;;;;;;8.48;1.38;;;;;;;8.53;100.00;99998.78;4957477;28;20481;-94
2023/09/23 00:04:53;;;;;;;3.35;0.95;;;;;;;8.57;100.00;100000.22;4956332;28;20104;-94
2023/09/23 00:07:19;;;;;;;4.65;1.23;;;;;;;8.49;100.00;99996.44;4957234;28;20051;-95
2023/09/23 00:09:44;;;;;;;4.88;1.13;;;;;;;8.20;100.00;100000.59;4956820;29;20027;-93
2023/09/23 00:12:11;;;;;;;3.45;1.02;;;;;;;8.36;100.00;100006.53;4956039;28;20565;-94
2023/09/23 00:14:36;;;;;;;4.53;1.10;;;;;;;8.44;100.00;100003.59;4957207;28;20062;-94
2023/09/23 00:17:04;;;;;;;5.00;1.13;;;;;;;8.41;100.00;100003.75;4957096;28;20069;-93
2023/09/23 00:19:34;;;;;;;4.53;1.35;;;;;;;8.40;100.00;100012.38;4955615;28;20378;-94
2023/09/23 00:22:00;;;;;;;5.20;1.48;;;;;;;8.41;100.00;99999.41;4957267;28;20031;-94
2023/09/23 00:24:25;;;;;;;3.92;0.90;;;;;;;8.41;100.00;99999.41;4955737;28;20382;-96
2023/09/23 00:26:51;;;;;;;6.68;1.42;;;;;;;8.44;100.00;100004.41;4956823;28;20106;-92
2023/09/23 00:29:17;;;;;;;2.40;1.02;;;;;;;8.48;100.00;100003.31;4956988;28;20038;-94
2023/09/23 00:31:43;;;;;;;6.32;1.25;;;;;;;8.39;100.00;100000.38;4971360;28;20027;-94
2023/09/23 00:34:09;;;;;;;6.03;0.93;;;;;;;8.29;100.00;100002.63;4971768;28;20565;-93
2023/09/23 00:36:34;;;;;;;6.53;1.40;;;;;;;8.29;100.00;100012.94;4956678;28;20110;-94
2023/09/23 00:39:03;;;;;;;4.90;1.40;;;;;;;8.31;100.00;100013.69;4963298;28;20028;-94
2023/09/23 00:41:29;;;;;;;3.55;1.17;;;;;;;8.26;100.00;100023.38;4971755;28;20032;-94
2023/09/23 00:43:55;;;;;;;2.55;1.10;;;;;;;8.23;100.00;100028.69;4956785;28;20489;-94
2023/09/23 00:46:23;;;;;;;7.97;1.63;;;;;;;8.19;100.00;100029.78;4956559;28;20027;-93
2023/09/23 00:48:50;;;;;;;5.45;1.75;;;;;;;8.19;100.00;100024.63;4955061;28;20109;-93
2023/09/23 00:51:18;;;;;;;6.28;1.25;;;;;;;8.13;100.00;100028.38;4971047;28;20118;-94
2023/09/23 00:53:44;;;;;;;4.65;1.10;;;;;;;8.22;100.00;100039.88;4971555;28;20030;-93
2023/09/23 00:56:12;;;;;;;6.00;1.00;;;;;;;8.10;100.00;100049.09;4955446;28;20113;-94
2023/09/23 00:58:37;;;;;;;3.92;1.00;;;;;;;8.07;100.00;100062.94;4956344;28;20027;-92
2023/09/23 01:01:03;;;;;;;6.97;1.70;;;;;;;8.02;100.00;100054.66;4955333;28;20027;-94
2023/09/23 01:03:30;;;;;;;3.65;1.13;;;;;;;7.97;100.00;100051.47;4954982;28;20031;-93
2023/09/23 01:06:04;;;;;;;7.28;1.30;;;;;;;8.04;100.00;100057.94;4954634;28;20035;-94
2023/09/23 01:08:30;;;;;;;4.15;1.30;;;;;;;7.98;100.00;100053.16;4970910;28;20037;-93
2023/09/23 01:10:56;;;;;;;4.10;1.10;;;;;;;8.05;100.00;100051.91;4954876;28;20023;-93
2023/09/23 01:13:24;;;;;;;4.57;1.75;;;;;;;8.14;100.00;100063.44;4956126;28;20057;-94
2023/09/23 01:15:51;;;;;;;7.47;1.30;;;;;;;7.92;100.00;100058.59;4954630;28;20027;-93
2023/09/23 01:18:17;;;;;;;4.45;1.40;;;;;;;7.79;100.00;100067.88;4955830;28;20486;-93
2023/09/23 01:20:46;;;;;;;4.28;1.38;;;;;;;7.82;100.00;100065.97;4954343;28;20040;-92
2023/09/23 01:23:12;;;;;;;5.25;1.30;;;;;;;7.92;100.00;100062.03;4954544;28;20034;-94
2023/09/23 01:25:38;;;;;;;4.95;1.30;;;;;;;7.91;100.00;100074.94;4955836;28;20063;-94
2023/09/23 01:28:05;;;;;;;6.82;1.20;;;;;;;7.82;100.00;100073.66;4955928;28;20426;-93
2023/09/23 01:30:31;;;;;;;4.80;1.60;;;;;;;7.81;100.00;100081.47;4954373;28;20034;-94
2023/09/23 01:32:56;;;;;;;4.95;1.38;;;;;;;7.83;100.00;100087.38;4954466;28;20043;-93
2023/09/23 01:35:22;;;;;;;4.75;1.10;;;;;;;8.00;100.00;100095.03;4955835;28;20034;-94
2023/09/23 01:37:51;;;;;;;4.85;1.60;;;;;;;7.80;100.00;100092.63;4955717;28;20473;-94
2023/09/23 01:40:19;;;;;;;3.53;1.05;;;;;;;7.83;100.00;100090.75;4955112;28;20027;-93
2023/09/23 01:42:46;;;;;;;5.00;1.50;;;;;;;7.97;100.00;100097.72;4954260;28;20027;-94
2023/09/23 01:45:13;;;;;;;5.63;1.08;;;;;;;7.92;100.00;100098.00;4954453;28;20031;-94
2023/09/23 01:47:40;;;;;;;6.22;1.27;;;;;;;8.09;100.00;100107.38;4955588;28;20074;-93
2023/09/23 01:50:06;;;;;;;8.23;1.27;;;;;;;8.04;100.00;100114.50;4955837;28;20107;-94
2023/09/23 01:52:32;;;;;;;8.02;1.35;;;;;;;7.99;100.00;100120.78;4970377;28;20030;-93
2023/09/23 01:54:58;;;;;;;6.97;1.67;;;;;;;7.92;100.00;100115.97;4969759;28;20058;-94
2023/09/23 01:57:23;;;;;;;5.03;1.48;;;;;;;8.06;100.00;100119.56;4955123;28;20042;-94
2023/09/23 01:59:49;;;;;;;6.75;1.35;;;;;;;8.06;100.00;100122.13;4954154;28;20110;-93
2023/09/23 02:02:17;;;;;;;6.00;1.42;;;;;;;7.98;100.00;100130.25;4969994;28;20023;-94
2023/09/23 02:04:43;;;;;;;5.75;1.60;;;;;;;7.97;100.00;100127.75;4953708;28;20516;-94
2023/09/23 02:07:10;;;;;;;4.45;1.05;;;;;;;7.96;100.00;100139.78;4953746;28;20023;-93
2023/09/23 02:09:37;;;;;;;4.55;1.40;;;;;;;8.01;100.00;100140.38;4953576;28;20027;-94
2023/09/23 02:12:03;;;;;;;9.13;1.85;;;;;;;7.92;100.00;100145.97;4954920;28;20162;-93
2023/09/23 02:14:29;;;;;;;3.88;1.25;;;;;;;7.97;100.00;100149.13;4953037;28;20031;-93
2023/09/23 02:16:55;;;;;;;6.78;1.10;;;;;;;7.96;100.00;100154.38;4953766;28;20039;-93
2023/09/23 02:19:21;;;;;;;6.25;1.15;;;;;;;8.00;100.00;100158.41;4953574;29;20031;-93
2023/09/23 02:21:47;;;;;;;4.50;1.15;;;;;;;7.88;100.00;100149.63;4969814;28;20113;-94
2023/09/23 02:24:13;;;;;;;3.47;1.02;;;;;;;7.81;100.00;100159.38;4953738;28;20027;-92
2023/09/23 02:26:38;;;;;;;5.10;1.10;;;;;;;7.87;100.00;100164.19;4954770;28;20038;-94
2023/09/23 02:29:06;;;;;;;4.07;1.20;;;;;;;7.87;100.00;100158.22;4954307;28;20110;-93
2023/09/23 02:31:35;;;;;;;3.42;1.00;;;;;;;7.72;100.00;100159.81;4953052;28;20035;-93
2023/09/23 02:34:03;;;;;;;6.97;1.27;;;;;;;7.84;100.00;100164.34;4953550;28;20082;-93
2023/09/23 02:36:29;;;;;;;3.83;1.27;;;;;;;7.84;100.00;100160.94;4954921;28;20027;-94
2023/09/23 02:38:54;;;;;;;7.57;1.10;;;;;;;7.88;100.00;100162.47;4953120;28;20064;-93
2023/09/23 02:41:20;;;;;;;5.03;1.25;;;;;;;7.99;100.00;100161.91;4969840;28;20039;-93
2023/09/23 02:43:45;;;;;;;3.88;1.30;;;;;;;8.07;100.00;100168.34;4953359;28;20023;-93
2023/09/23 02:46:10;;;;;;;5.53;1.17;;;;;;;8.36;100.00;100171.09;4954428;28;20031;-93
2023/09/23 02:48:36;;;;;;;7.53;1.45;;;;;;;8.29;100.00;100177.47;4952508;28;20019;-94
2023/09/23 02:51:04;;;;;;;6.45;1.15;;;;;;;8.27;100.00;100177.59;4952749;28;20033;-94
2023/09/23 02:53:30;;;;;;;5.95;1.00;;;;;;;8.28;100.00;100179.22;4969142;28;20106;-94
2023/09/23 02:56:10;;;;;;;6.00;1.00;;;;;;;8.27;100.00;100181.91;4954335;28;20397;-94
2023/09/23 02:58:35;;;;;;;3.33;1.20;;;;;;;8.33;100.00;100191.84;4969237;28;20474;-95
2023/09/23 03:01:04;;;;;;;7.03;2.33;;;;;;;8.35;100.00;100184.88;4956946;28;20691;-93
2023/09/23 03:03:30;;;;;;;3.13;1.00;;;;;;;8.40;100.00;100188.06;4950869;29;20030;-94
2023/09/23 03:05:57;;;;;;;3.45;1.52;;;;;;;8.44;100.00;100192.16;4952687;28;20027;-93
2023/09/23 03:08:25;;;;;;;3.30;1.23;;;;;;;8.50;100.00;100199.53;4969318;28;20034;-93
2023/09/23 03:10:52;;;;;;;7.38;2.80;;;;;;;8.52;100.00;100195.16;4953199;28;20050;-94
2023/09/23 03:13:23;;;;;;;5.00;1.20;;;;;;;8.50;100.00;100204.69;4952805;28;20066;-94
2023/09/23 03:16:06;;;;;;;3.53;1.00;;;;;;;8.49;100.00;100202.22;4953998;28;20047;-92
2023/09/23 03:18:37;;;;;;;5.10;1.60;;;;;;;8.50;100.00;100209.81;4952760;28;20032;-94
2023/09/23 03:21:09;;;;;;;4.88;1.13;;;;;;;8.52;100.00;100208.00;4962536;28;20028;-93
2023/09/23 03:23:37;;;;;;;5.03;1.10;;;;;;;8.54;100.00;100205.38;4933325;29;20621;-93
2023/09/23 03:26:04;;;;;;;6.07;1.10;;;;;;;8.63;100.00;100207.44;4951571;28;20499;-93
2023/09/23 03:28:30;;;;;;;4.03;1.20;;;;;;;8.57;100.00;100200.88;4953951;28;20045;-93
2023/09/23 03:31:02;;;;;;;8.15;1.02;;;;;;;8.81;100.00;100208.22;4954055;28;20102;-94
2023/09/23 03:33:28;;;;;;;5.90;1.45;;;;;;;9.01;100.00;100204.56;4952661;28;20093;-94
2023/09/23 03:35:54;;;;;;;7.50;1.38;;;;;;;9.07;100.00;100208.53;4966867;28;20113;-94
2023/09/23 03:38:19;;;;;;;8.60;1.38;;;;;;;8.89;100.00;100207.78;4951441;28;20118;-93
2023/09/23 03:41:02;;;;;;;4.07;1.10;;;;;;;8.84;100.00;100207.22;4953587;28;20043;-93
2023/09/23 03:43:29;;;;;;;6.32;1.42;;;;;;;8.79;100.00;100215.19;4952695;28;20034;-93
2023/09/23 03:45:55;;;;;;;5.13;1.27;;;;;;;8.71;100.00;100212.19;4952358;28;20039;-94
2023/09/23 03:48:20;;;;;;;3.83;0.90;;;;;;;8.64;100.00;100214.25;4953515;28;20027;-93
2023/09/23 03:50:53;;;;;;;5.43;1.38;;;;;;;8.63;100.00;100219.47;4968346;28;20020;-93
2023/09/23 03:53:22;;;;;;;6.95;2.17;;;;;;;8.88;100.00;100219.84;4953487;28;20414;-93
2023/09/23 03:55:49;;;;;;;5.90;1.33;;;;;;;8.76;100.00;100226.47;4953897;28;20031;-94
2023/09/23 03:58:17;;;;;;;5.18;0.93;;;;;;;8.63;100.00;100224.63;4968189;28;20046;-94
2023/09/23 04:00:43;;;;;;;7.35;1.40;;;;;;;8.52;100.00;100226.00;4952357;28;20145;-95
2023/09/23 04:03:09;;;;;;;6.07;1.67;;;;;;;8.52;100.00;100233.72;4967755;28;20027;-93
2023/09/23 04:05:34;;;;;;;7.63;1.83;;;;;;;8.50;100.00;100230.41;4953591;28;20477;-93
2023/09/23 04:07:59;;;;;;;8.95;1.40;;;;;;;8.48;100.00;100226.25;4953133;28;20027;-93
2023/09/23 04:10:27;;;;;;;9.90;1.83;;;;;;;8.37;100.00;100226.78;4968159;28;20580;-94
2023/09/23 04:12:54;;;;;;;3.78;1.30;;;;;;;8.27;100.00;100223.88;4952221;28;20520;-93
2023/09/23 04:15:24;;;;;;;8.48;1.80;;;;;;;8.17;100.00;100229.53;4952198;28;20031;-94
2023/09/23 04:17:49;;;;;;;6.90;1.17;;;;;;;8.14;100.00;100228.81;4951880;28;20102;-93
2023/09/23 04:20:15;;;;;;;3.53;1.10;;;;;;;8.40;100.00;100221.50;4952437;28;20489;-94
2023/09/23 04:22:42;;;;;;;6.53;1.20;;;;;;;8.18;100.00;100228.63;4953175;28;20050;-94
2023/09/23 04:25:08;;;;;;;2.97;0.82;;;;;;;8.14;100.00;100233.09;4953041;28;20115;-93
2023/09/23 04:27:36;;;;;;;7.03;1.27;;;;;;;8.07;100.00;100222.31;4952756;28;20035;-93
2023/09/23 04:30:11;;;;;;;5.68;1.38;;;;;;;8.10;100.00;100226.47;4953403;28;20051;-93
2023/09/23 04:32:38;;;;;;;6.50;1.20;;;;;;;8.15;100.00;100225.31;4953321;28;20102;-95
2023/09/23 04:35:05;;;;;;;6.65;1.33;;;;;;;8.00;100.00;100231.25;4952024;28;20031;-92
2023/09/23 04:37:33;;;;;;;8.60;2.97;;;;;;;7.95;100.00;100228.06;4955400;28;20086;-92
2023/09/23 04:39:59;;;;;;;6.10;1.45;;;;;;;7.72;100.00;100235.16;4972227;28;20031;-94
2023/09/23 04:42:24;;;;;;;5.97;0.90;;;;;;;8.00;100.00;100225.25;4962271;28;20099;-92
2023/09/23 04:44:49;;;;;;;7.43;1.13;;;;;;;7.84;100.00;100241.44;4946358;29;20042;-93
2023/09/23 04:47:17;;;;;;;12.57;3.45;;;;;;;7.80;100.00;100237.34;4966357;28;20532;-93
2023/09/23 04:49:43;;;;;;;8.57;1.08;;;;;;;7.75;100.00;100251.31;4971456;28;20086;-93
2023/09/23 04:52:09;;;;;;;4.03;0.98;;;;;;;7.66;100.00;100245.75;4956604;28;20035;-93
2023/09/23 04:54:35;;;;;;;6.63;1.73;;;;;;;7.64;100.00;100260.38;4971497;28;20469;-94
2023/09/23 04:57:02;;;;;;;4.35;1.52;;;;;;;7.61;100.00;100255.41;4955080;28;20106;-94
2023/09/23 04:59:28;;;;;;;7.90;1.60;;;;;;;7.59;100.00;100262.34;4956524;28;20028;-93
2023/09/23 05:01:53;;;;;;;6.68;1.48;;;;;;;7.57;100.00;100266.72;4961011;28;20039;-94
2023/09/23 05:04:19;;;;;;;4.80;1.30;;;;;;;7.66;100.00;100268.84;4936001;29;20037;-92
2023/09/23 05:06:44;;;;;;;6.55;1.63;;;;;;;7.57;100.00;100282.13;4937445;29;20023;-92
2023/09/23 05:09:11;;;;;;;6.57;1.52;;;;;;;7.50;100.00;100275.63;4936968;29;20027;-95
2023/09/23 05:11:36;;;;;;;4.10;1.30;;;;;;;7.55;100.00;100277.97;4937128;29;20024;-93
2023/09/23 05:14:05;;;;;;;7.07;1.83;;;;;;;7.40;100.00;100272.66;4937391;29;20038;-92
2023/09/23 05:16:30;;;;;;;6.70;1.20;;;;;;;7.31;100.00;100277.38;4956329;28;20042;-93
2023/09/23 05:18:56;;;;;;;5.40;1.30;;;;;;;7.23;100.00;100278.56;4954271;29;20032;-93
2023/09/23 05:21:21;;;;;;;4.25;1.10;;;;;;;7.23;100.00;100286.28;4954703;28;20023;-94
2023/09/23 05:23:49;;;;;;;8.43;1.08;;;;;;;7.17;100.00;100291.69;4956140;28;20035;-94
2023/09/23 05:26:16;;;;;;;4.15;1.30;;;;;;;7.21;100.00;100302.66;4937596;28;20130;-93
2023/09/23 05:28:44;;;;;;;4.13;1.38;;;;;;;7.11;100.00;100297.09;4953381;29;20028;-95
2023/09/23 05:31:09;;;;;;;3.88;1.10;;;;;;;7.07;100.00;100308.41;4956056;28;20031;-94
2023/09/23 05:33:35;;;;;;;5.57;1.38;;;;;;;7.11;100.00;100309.09;4955845;28;20038;-93
2023/09/23 05:36:01;;;;;;;3.00;1.23;;;;;;;7.08;100.00;100307.50;4955697;28;20031;-93
2023/09/23 05:38:26;;;;;;;4.80;1.20;;;;;;;7.06;100.00;100317.00;4955151;28;20027;-94
2023/09/23 05:40:51;;;;;;;3.65;0.90;;;;;;;6.95;100.00;100316.63;4970589;28;20500;-93
2023/09/23 05:43:17;;;;;;;5.85;1.20;;;;;;;6.99;100.00;100323.31;4970429;28;20466;-94
2023/09/23 05:45:43;;;;;;;7.15;1.30;;;;;;;6.93;100.00;100333.88;4970623;28;20034;-91
2023/09/23 05:48:09;;;;;;;2.47;0.98;;;;;;;6.98;100.00;100334.50;4939715;28;20465;-92
2023/09/23 05:50:36;;;;;;;3.53;1.20;;;;;;;7.02;100.00;100341.13;4935140;29;20031;-93
2023/09/23 05:53:02;;;;;;;3.92;1.08;;;;;;;7.16;100.00;100343.09;4936621;28;20090;-92
2023/09/23 05:55:28;;;;;;;4.97;1.15;;;;;;;7.14;100.00;100347.47;4948933;29;20405;-92
2023/09/23 05:57:54;;;;;;;2.88;1.17;;;;;;;7.04;100.00;100352.16;4969462;28;20034;-93
2023/09/23 06:00:19;;;;;;;8.23;1.20;;;;;;;7.02;100.00;100352.25;4955150;28;20027;-93
2023/09/23 06:02:45;;;;;;;5.65;1.10;;;;;;;7.00;100.00;100355.78;4955155;28;20426;-93
2023/09/23 06:05:11;;;;;;;6.57;1.50;;;;;;;7.00;100.00;100356.63;4952781;28;20489;-95
2023/09/23 06:07:37;;;;;;;2.70;1.17;;;;;;;7.02;100.00;100364.22;4952921;28;20082;-93
2023/09/23 06:10:04;;;;;;;6.80;2.05;;;;;;;7.04;100.00;100363.25;4970009;28;20031;-92
2023/09/23 06:12:30;;;;;;;4.80;2.05;;;;;;;7.01;100.00;100368.53;4953141;28;20089;-93
2023/09/23 06:15:00;;;;;;;4.93;1.48;;;;;;;7.04;100.00;100365.00;4961072;28;20031;-92
2023/09/23 06:17:27;;;;;;;5.15;1.00;;;;;;;7.08;100.00;100369.09;4935638;29;20035;-92
2023/09/23 06:19:56;;;;;;;2.95;1.17;;;;;;;7.08;100.00;100382.75;4951659;29;20486;-93
2023/09/23 06:22:22;;;;;;;14.73;2.38;;;;;;;7.06;100.00;100376.03;4968629;28;20117;-94
2023/09/23 06:24:50;;;;;;;7.22;1.27;;;;;;;7.10;100.00;100377.56;4969450;28;20091;-91
2023/09/23 06:27:16;;;;;;;9.77;1.83;;;;;;;7.19;100.00;100378.88;4969496;28;20023;-93
2023/09/23 06:29:42;;;;;;;8.18;1.33;;;;;;;7.22;100.00;100377.03;4953398;29;20087;-93
2023/09/23 06:32:07;;;;;;;5.43;1.20;;;;;;;7.29;100.00;100378.44;4953623;29;20488;-91
2023/09/23 06:34:32;;;;;;;10.18;1.70;;;;;;;7.40;100.00;100380.50;4954655;28;20023;-93
2023/09/23 06:36:58;;;;;;;5.28;1.40;;;;;;;7.45;100.00;100386.25;4944525;28;20024;-93
2023/09/23 06:39:24;;;;;;;10.15;1.60;;;;;;;7.53;100.00;100396.19;4935526;29;20031;-94
2023/09/23 06:41:50;;;;;;;6.43;1.40;;;;;;;7.60;100.00;100399.31;4944730;29;20029;-92
2023/09/23 06:44:15;;;;;;;10.02;1.92;;;;;;;7.70;100.00;100403.09;4969646;28;20059;-93
2023/09/23 06:46:40;;;;;;;4.93;1.63;;;;;;;7.73;100.00;100400.44;4988728;28;20531;-91
2023/09/23 06:49:06;;;;;;;5.65;1.17;;;;;;;7.78;100.00;100413.88;4988614;28;20039;-92
2023/09/23 06:51:31;;;;;;;12.93;1.50;;;;;;;7.84;100.00;100405.06;4987638;28;20049;-93
2023/09/23 06:53:56;;;;;;;7.43;1.55;;;;;;;7.86;100.00;100409.22;4978645;28;20027;-91
2023/09/23 06:56:22;;;;;;;4.40;1.30;;;;;;;7.91;100.00;100411.56;4953286;28;20035;-92
2023/09/23 06:58:47;;;;;;;7.47;1.20;;;;;;;7.99;100.00;100414.59;4968955;28;20699;-93
2023/09/23 07:01:12;;;;;;;4.75;1.48;;;;;;;8.07;100.00;100417.66;4953889;28;20054;-92
2023/09/23 07:03:38;;;;;;;2.45;1.13;;;;;;;8.13;100.00;100426.81;4952368;28;20023;-93
2023/09/23 07:06:03;;;;;;;3.45;1.42;;;;;;;8.20;100.00;100435.91;4953219;28;20070;-90
2023/09/23 07:08:29;;;;;;;4.97;1.05;;;;;;;8.26;100.00;100427.06;4954016;29;20030;-92
2023/09/23 07:10:55;;;;;;;8.43;1.25;;;;;;;8.33;100.00;100436.13;4953220;29;20038;-92
2023/09/23 07:13:20;;;;;;;3.90;1.20;;;;;;;8.41;100.00;100446.09;4953198;28;20055;-91
2023/09/23 07:15:46;;;;;;;5.35;1.20;;;;;;;8.50;100.00;100446.47;4955983;28;20489;-90
2023/09/23 07:18:13;;;;;;;5.65;1.10;;;;;;;8.52;100.00;100436.94;4958505;28;20431;-92
2023/09/23 07:20:39;;;;;;;3.90;1.08;;;;;;;8.62;100.00;100450.19;4977167;28;20023;-92
2023/09/23 07:23:04;;;;;;;5.95;1.60;;;;;;;8.73;100.00;100447.94;4955002;28;20028;-91
2023/09/23 07:25:30;;;;;;;10.15;1.60;;;;;;;8.91;100.00;100460.78;4953438;29;20066;-92
2023/09/23 07:27:59;;;;;;;4.28;1.67;;;;;;;8.98;100.00;100473.28;4956826;28;20054;-92
2023/09/23 07:30:24;;;;;;;8.13;1.70;;;;;;;9.08;100.00;100472.81;4970612;28;20066;-92
2023/09/23 07:32:50;;;;;;;9.93;2.38;;;;;;;9.58;100.00;100479.66;4979324;28;20115;-90
2023/09/23 07:35:15;;;;;;;8.93;2.40;;;;;;;10.34;100.00;100484.19;4952971;29;20401;-91
2023/09/23 07:37:41;;;;;;;7.93;2.08;;;;;;;10.71;100.00;100481.19;4953279;28;20089;-91
2023/09/23 07:40:07;;;;;;;5.35;1.30;;;;;;;10.78;100.00;100486.00;4953635;28;20032;-91
2023/09/23 07:42:32;;;;;;;8.40;2.05;;;;;;;12.40;100.00;100489.06;4953167;28;20031;-92
2023/09/23 07:44:58;;;;;;;15.13;3.75;;;;;;;11.77;100.00;100494.75;4953069;28;20540;-92
2023/09/23 07:47:23;;;;;;;12.00;2.17;;;;;;;12.16;100.00;100498.41;4954860;28;20039;-92
2023/09/23 07:49:49;;;;;;;14.35;2.10;;;;;;;13.12;100.00;100509.44;4952895;28;20024;-93
2023/09/23 07:52:14;;;;;;;17.40;3.03;;;;;;;16.66;90.79;100510.94;4953166;28;20038;-96
2023/09/23 07:54:40;;;;;;;5.97;2.08;;;;;;;17.18;80.42;100510.19;4954309;28;20037;-90
2023/09/23 07:57:05;;;;;;;6.50;1.75;;;;;;;18.22;75.86;100514.31;4956518;28;20019;-94
2023/09/23 07:59:31;;;;;;;14.73;3.92;;;;;;;19.25;70.28;100521.53;4952606;28;20019;-94
2023/09/23 08:01:56;;;;;;;6.28;1.23;;;;;;;20.23;62.33;100513.22;4953142;28;20482;-93
2023/09/23 08:04:21;;;;;;;7.75;1.77;;;;;;;20.98;58.78;100520.75;4952241;28;20500;-95
2023/09/23 08:06:47;;;;;;;8.68;2.35;;;;;;;20.60;57.20;100520.13;4956016;28;20031;-96
2023/09/23 08:09:12;;;;;;;9.70;2.17;;;;;;;21.54;53.50;100540.47;4953925;28;20046;-93
2023/09/23 08:11:37;;;;;;;10.43;1.98;;;;;;;22.18;51.29;100535.59;4954264;28;20439;-94
2023/09/23 08:14:03;;;;;;;10.73;1.90;;;;;;;22.77;49.57;100543.41;4971764;28;20085;-94
2023/09/23 08:16:28;;;;;;;11.98;2.97;;;;;;;23.30;48.54;100539.41;4971862;28;20119;-95
2023/09/23 08:18:53;;;;;;;12.13;2.88;;;;;;;23.45;46.92;100540.34;4955612;28;20058;-94
2023/09/23 08:21:19;;;;;;;11.77;1.95;;;;;;;23.63;47.28;100545.41;4956312;28;20035;-94
2023/09/23 08:23:44;;;;;;;9.07;3.15;;;;;;;23.75;45.70;100550.31;4956865;28;20504;-94
2023/09/23 08:26:10;;;;;;;7.05;2.30;;;;;;;24.15;44.81;100541.38;4956305;28;20389;-93
2023/09/23 08:28:36;;;;;;;8.27;1.90;;;;;;;24.30;44.35;100544.09;4967649;28;20026;-93
2023/09/23 08:31:02;;;;;;;7.20;2.22;;;;;;;24.31;44.36;100541.28;4962952;28;20032;-92
2023/09/23 08:33:30;;;;;;;7.20;1.80;;;;;;;24.01;44.10;100536.84;4957749;28;20474;-95
2023/09/23 08:35:56;;;;;;;12.95;2.83;;;;;;;24.29;44.56;100545.09;4955688;28;20027;-94
2023/09/23 08:38:22;;;;;;;9.70;2.92;;;;;;;24.24;43.93;100548.25;4967542;28;20505;-93
2023/09/23 08:40:50;;;;;;;7.07;1.83;;;;;;;24.77;43.67;100556.28;4951198;29;20453;-94
2023/09/23 08:43:19;;;;;;;7.45;2.25;;;;;;;24.45;43.83;100552.06;4966067;28;20039;-95
2023/09/23 08:45:46;;;;;;;6.82;1.92;;;;;;;24.47;43.36;100561.47;4973503;28;20069;-93
2023/09/23 08:48:16;;;;;;;6.60;1.60;;;;;;;23.33;44.86;100562.75;4956017;28;20478;-93
2023/09/23 08:50:46;;;;;;;8.35;1.90;;;;;;;21.23;49.34;100563.72;4954247;28;20029;-92
2023/09/23 08:53:16;;;;;;;10.73;2.60;;;;;;;21.16;50.56;100566.94;4973227;28;20516;-92
2023/09/23 08:55:43;;;;;;;14.90;2.47;;;;;;;20.57;51.80;100575.50;4959042;28;20031;-92
2023/09/23 08:58:09;;;;;;;9.93;3.03;;;;;;;20.15;53.25;100570.78;4956298;28;20478;-92
2023/09/23 09:00:34;;;;;;;11.68;3.00;;;;;;;19.81;54.28;100574.81;4955902;28;20079;-94
2023/09/23 09:03:00;;;;;;;11.25;2.75;;;;;;;19.13;58.20;100575.00;4957129;28;20073;-93
2023/09/23 09:05:36;;;;;;;7.35;1.77;;;;;;;18.99;59.17;100583.25;4954568;28;20027;-91
2023/09/23 09:08:02;;;;;;;8.43;1.95;;;;;;;18.62;57.63;100591.78;4955596;28;20474;-93
2023/09/23 09:10:27;;;;;;;7.28;1.95;;;;;;;18.85;59.60;100588.91;4955927;28;20031;-95
2023/09/23 09:12:53;;;;;;;9.57;2.75;;;;;;;19.02;57.64;100590.84;4954538;28;20496;-94
2023/09/23 09:15:21;;;;;;;8.35;1.95;;;;;;;20.86;53.71;100589.22;4962540;28;20031;-93
2023/09/23 09:17:46;;;;;;;8.30;1.90;;;;;;;21.48;50.53;100596.22;4954070;29;20057;-94
2023/09/23 09:20:12;;;;;;;7.55;1.73;;;;;;;21.68;49.87;100597.69;4954408;28;20055;-93
2023/09/23 09:22:40;;;;;;;6.43;1.60;;;;;;;20.90;49.27;100602.88;4954375;28;20024;-94
2023/09/23 09:25:11;;;;;;;8.93;1.77;;;;;;;20.65;49.27;100604.41;4953707;28;20520;-95
2023/09/23 09:27:37;;;;;;;5.60;1.27;;;;;;;20.46;49.00;100600.94;4953996;28;20122;-93
2023/09/23 09:30:04;;;;;;;7.80;2.42;;;;;;;21.00;48.52;100602.78;4955430;28;20540;-95
2023/09/23 09:32:30;;;;;;;8.55;2.22;;;;;;;21.00;48.44;100603.59;4969701;28;20034;-94
2023/09/23 09:35:01;;;;;;;8.05;1.83;;;;;;;20.44;47.34;100602.06;4954695;28;20370;-93
2023/09/23 09:37:27;;;;;;;8.00;2.67;;;;;;;19.79;48.68;100612.59;4954729;28;20550;-94
2023/09/23 09:39:57;;;;;;;10.18;2.08;;;;;;;19.84;47.71;100607.75;4954772;28;20479;-91
2023/09/23 09:42:33;;;;;;;5.40;1.40;;;;;;;19.88;48.60;100606.50;4955293;28;20040;-93
2023/09/23 09:45:00;;;;;;;9.80;1.95;;;;;;;20.01;49.13;100608.78;4955125;29;20389;-94
2023/09/23 09:47:32;;;;;;;6.47;1.52;;;;;;;19.61;49.38;100600.22;4955430;28;20065;-94
2023/09/23 09:49:59;;;;;;;5.55;2.03;;;;;;;19.61;48.80;100608.09;4972368;28;20030;-93
2023/09/23 09:52:26;;;;;;;6.13;1.90;;;;;;;18.82;45.37;100613.53;4959570;28;20332;-92
2023/09/23 09:54:55;;;;;;;6.70;1.40;;;;;;;18.46;47.38;100607.16;4955456;28;20031;-92
2023/09/23 09:57:22;;;;;;;7.70;1.80;;;;;;;18.63;47.09;100606.50;4957710;28;20062;-93
2023/09/23 09:59:48;;;;;;;14.70;2.22;;;;;;;18.65;46.14;100607.19;4966510;28;20019;-93
2023/09/23 10:02:15;;;;;;;6.00;1.40;;;;;;;18.95;45.46;100602.84;4954653;28;20035;-92
2023/09/23 10:04:45;;;;;;;5.05;1.30;;;;;;;19.40;45.04;100591.75;4954454;28;20023;-92
2023/09/23 10:07:11;;;;;;;6.13;1.50;;;;;;;18.47;48.06;100593.13;4954988;29;20162;-92
2023/09/23 10:09:39;;;;;;;6.93;1.95;;;;;;;19.00;46.79;100600.63;4954893;28;20118;-92
2023/09/23 10:12:06;;;;;;;3.72;1.67;;;;;;;18.81;47.33;100599.66;4965683;28;20019;-93
2023/09/23 10:14:33;;;;;;;7.30;1.77;;;;;;;19.25;45.68;100600.03;4970949;28;20034;-92
2023/09/23 10:17:01;;;;;;;6.20;1.63;;;;;;;19.23;45.90;100599.34;4956911;28;20204;-90
2023/09/23 10:19:45;;;;;;;3.30;1.13;;;;;;;19.06;45.69;100604.47;4950137;28;20023;-94
2023/09/23 10:22:21;;;;;;;7.25;1.25;;;;;;;19.38;45.78;100593.66;4964606;28;20454;-93
2023/09/23 10:25:04;;;;;;;8.75;1.83;;;;;;;19.22;47.58;100592.47;4959922;28;20039;-91
2023/09/23 10:27:30;;;;;;;4.10;1.55;;;;;;;19.50;45.82;100594.34;4952222;29;20520;-92
2023/09/23 10:29:56;;;;;;;6.65;1.70;;;;;;;19.05;46.52;100598.41;4952163;28;20035;-91
2023/09/23 10:32:21;;;;;;;8.88;1.70;;;;;;;19.20;48.40;100606.66;4952354;28;20039;-93
2023/09/23 10:34:48;;;;;;;5.45;1.40;;;;;;;19.58;46.14;100600.53;4950864;28;20090;-94
2023/09/23 10:37:24;;;;;;;6.32;1.58;;;;;;;18.67;47.13;100599.19;4952695;28;20026;-93
2023/09/23 10:39:49;;;;;;;6.03;1.83;;;;;;;18.15;47.78;100602.00;4952253;28;20038;-91
2023/09/23 10:42:15;;;;;;;7.35;1.60;;;;;;;18.10;49.55;100609.41;4954004;28;20170;-91
2023/09/23 10:44:40;;;;;;;6.40;1.40;;;;;;;18.37;49.12;100607.00;4959754;28;20109;-93
2023/09/23 10:47:06;;;;;;;9.30;1.70;;;;;;;18.60;48.65;100606.75;4953070;28;20438;-93
2023/09/23 10:49:31;;;;;;;5.75;1.42;;;;;;;18.85;48.36;100623.75;4951656;28;20126;-93
2023/09/23 10:51:57;;;;;;;5.13;1.52;;;;;;;19.57;49.20;100616.38;4954047;28;20038;-95
2023/09/23 10:54:24;;;;;;;5.95;1.77;;;;;;;19.64;45.44;100610.41;4950225;28;20486;-92
2023/09/23 10:56:49;;;;;;;5.40;1.40;;;;;;;19.09;47.52;100612.84;4953211;28;20035;-93
2023/09/23 10:59:16;;;;;;;5.75;1.60;;;;;;;18.61;46.46;100603.19;4983406;28;20110;-92
2023/09/23 11:01:45;;;;;;;7.05;1.83;;;;;;;18.77;46.94;100613.97;4954845;28;20030;-91
2023/09/23 11:04:10;;;;;;;8.57;1.70;;;;;;;19.07;45.48;100617.41;4951004;29;20035;-92
2023/09/23 11:06:37;;;;;;;4.55;1.23;;;;;;;19.63;47.39;100614.00;4951311;28;20038;-91
2023/09/23 11:09:05;;;;;;;4.30;1.48;;;;;;;19.15;46.47;100620.16;4952008;28;20024;-92
2023/09/23 11:11:34;;;;;;;9.48;2.00;;;;;;;18.98;47.06;100626.91;4954324;28;20114;-92
2023/09/23 11:13:59;;;;;;;5.35;1.48;;;;;;;18.97;47.15;100627.03;4952873;29;20497;-94
2023/09/23 11:16:25;;;;;;;5.85;1.30;;;;;;;19.52;45.70;100636.91;4953001;28;20031;-91
2023/09/23 11:18:52;;;;;;;4.30;1.35;;;;;;;20.15;45.02;100628.44;4943004;29;20039;-91
2023/09/23 11:21:17;;;;;;;7.03;1.80;;;;;;;20.09;43.33;100628.06;4971514;28;20397;-92